메인 페이지
METAR-TAF:

METAR-TAF

공항 :

Pryor Field Regional Airport

디케이터, 앨라배마, 미국

위도: 34-39-29N, 경도: 086-56-36W, 고도: 180m

현재 날씨관측

예보는 50분 전, 17:53시(UTC)에 발표되었습니다.
13kt
온도 25°C
습도 65%
기압 1016 hPa
시정: 16.1km
고도 3700ft 상공 구름 보통

METAR: KDCU 231753Z AUTO 35013KT 10SM SCT037 25/18 A3000 RMK AO2 SLP153 T02500178 10261 20206 50000

시각: 13:43 (18:43 UTC)


TAF: 누락

4,000개 이상의 공항 관측 자료 및 예보 (METAR 및 TAF 보고).

지도상에서 검색 가능한 기상관측소가 노란 점과 빨간 점으로 표시되어 있습니다.

기상관측소 명을 보려면 표시 위로 마우스를 이동하세요.

날씨 관측과 예보를 보려면 클릭하세요.

지도 변경 : 확대하려면 엑스 표시가 있는 녹색 버튼, 축소하려면 빼기 표시가 있는 녹색 버튼, 다음 페이지의 지도를 보려면 녹색 화살표를 클릭하세요.


METAR-TAF: